Time;durP1;ratioP1;P1;durP2;ratioP2;P2;SDS_P1;SDS_P2;PMS_P1;PMS_P2;Temp;Humidity;BMP_temperature;BMP_pressure;BME280_temperature;BME280_humidity;BME280_pressure;Samples;Min_cycle;Max_cycle;Signal;HPM_P1;HPM_P2
2020/12/22 00:01:56;;;;;;;5.07;4.55;;;;;;;13.32;69.57;98265.31;4986451;28;20078;-84
2020/12/22 00:04:24;;;;;;;5.88;4.85;;;;;;;13.40;69.27;98278.97;4989249;28;20049;-85
2020/12/22 00:06:57;;;;;;;5.57;5.03;;;;;;;13.60;68.06;98284.25;4965615;28;20077;-83
2020/12/22 00:09:25;;;;;;;5.18;4.68;;;;;;;13.71;67.97;98289.91;4971482;28;20548;-84
2020/12/22 00:11:56;;;;;;;5.50;4.85;;;;;;;12.90;70.32;98284.44;4967064;28;20065;-85
2020/12/22 00:14:24;;;;;;;5.55;5.05;;;;;;;13.17;69.22;98295.66;4987745;28;20139;-84
2020/12/22 00:16:52;;;;;;;6.88;5.50;;;;;;;13.43;68.33;98310.31;4969756;28;20055;-84
2020/12/22 00:19:21;;;;;;;6.10;5.35;;;;;;;12.94;69.81;98308.78;4971158;28;20046;-83
2020/12/22 00:21:48;;;;;;;10.00;5.97;;;;;;;13.13;69.85;98312.41;4964697;28;20050;-83
2020/12/22 00:24:15;;;;;;;6.93;5.13;;;;;;;13.38;69.14;98315.75;4953114;28;20158;-84
2020/12/22 00:26:42;;;;;;;5.95;4.72;;;;;;;13.46;67.91;98324.19;4959282;28;20553;-84
2020/12/22 00:29:09;;;;;;;6.97;4.28;;;;;;;13.46;67.97;98324.19;4966760;28;20088;-84
2020/12/22 00:31:42;;;;;;;5.50;5.00;;;;;;;13.04;69.25;98334.56;4969263;28;20453;-83
2020/12/22 00:34:09;;;;;;;4.05;3.47;;;;;;;13.01;68.95;98345.16;4952571;28;20421;-83
2020/12/22 00:36:35;;;;;;;4.05;3.65;;;;;;;12.92;69.78;98347.28;4969110;28;20537;-83
2020/12/22 00:39:02;;;;;;;4.93;4.43;;;;;;;12.94;69.23;98348.97;4950881;28;20073;-85
2020/12/22 00:41:29;;;;;;;4.25;3.67;;;;;;;13.13;68.87;98353.50;4968967;28;20046;-83
2020/12/22 00:43:59;;;;;;;4.38;3.78;;;;;;;13.21;68.45;98354.06;4952560;28;20478;-84
2020/12/22 00:46:27;;;;;;;5.57;3.92;;;;;;;12.76;69.85;98364.53;4965658;28;20038;-84
2020/12/22 00:49:01;;;;;;;4.95;4.30;;;;;;;12.78;69.54;98365.31;4951137;28;20138;-84
2020/12/22 00:51:28;;;;;;;4.75;4.25;;;;;;;12.75;69.72;98368.06;4965714;28;20125;-84
2020/12/22 00:53:55;;;;;;;5.78;5.28;;;;;;;12.98;68.90;98378.53;4962607;28;20518;-83
2020/12/22 00:56:23;;;;;;;6.10;5.50;;;;;;;12.80;69.08;98382.69;4964290;28;20062;-85
2020/12/22 00:58:50;;;;;;;6.10;5.55;;;;;;;13.08;68.29;98385.13;4970959;28;20552;-85
2020/12/22 01:01:17;;;;;;;7.85;6.38;;;;;;;12.69;68.70;98392.72;4968986;28;20101;-84
2020/12/22 01:03:46;;;;;;;6.95;6.25;;;;;;;12.95;68.36;98400.44;4948098;28;20045;-84
2020/12/22 01:06:18;;;;;;;7.50;6.75;;;;;;;12.84;68.07;98401.78;4968992;28;20043;-84
2020/12/22 01:08:44;;;;;;;6.85;6.15;;;;;;;12.35;69.34;98403.53;4962957;28;20043;-82
2020/12/22 01:11:11;;;;;;;7.72;6.25;;;;;;;12.58;68.52;98410.56;4982304;28;20043;-84
2020/12/22 01:13:37;;;;;;;7.35;5.30;;;;;;;12.68;68.10;98414.56;4969165;28;20049;-84
2020/12/22 01:16:07;;;;;;;7.93;5.75;;;;;;;12.49;68.26;98417.00;4969262;28;20039;-85
2020/12/22 01:18:44;;;;;;;7.00;5.90;;;;;;;12.73;68.07;98423.13;4976426;28;20055;-85
2020/12/22 01:21:22;;;;;;;7.18;5.82;;;;;;;12.64;68.01;98426.94;4965631;28;20038;-86
2020/12/22 01:23:51;;;;;;;5.88;4.85;;;;;;;12.27;68.88;98429.16;4967205;28;20102;-85
2020/12/22 01:26:23;;;;;;;6.47;4.60;;;;;;;12.44;67.87;98437.25;4961969;28;20090;-85
2020/12/22 01:28:52;;;;;;;;;;;;;;;12.76;67.08;98449.22;4953247;28;20135;-83
2020/12/22 01:31:21;;;;;;;8.15;4.70;;;;;;;12.48;66.99;98451.97;4960859;28;19972;-84
2020/12/22 01:33:49;;;;;;;6.65;5.47;;;;;;;11.97;68.72;98467.66;4947456;28;20078;-84
2020/12/22 01:36:20;;;;;;;8.10;5.75;;;;;;;12.27;67.87;98470.19;4963930;28;20046;-84
2020/12/22 01:38:48;;;;;;;7.45;6.53;;;;;;;12.06;68.56;98463.88;4950462;28;20068;-86
2020/12/22 01:41:16;;;;;;;9.65;7.43;;;;;;;12.12;67.87;98472.41;4979991;28;20038;-85
2020/12/22 01:44:01;;;;;;;7.75;6.35;;;;;;;12.04;68.13;98477.03;4946900;28;20043;-85
2020/12/22 01:46:33;;;;;;;6.93;6.13;;;;;;;11.79;69.00;98484.84;4967513;28;20042;-86
2020/12/22 01:49:00;;;;;;;;;;;;;;;11.97;68.05;98487.75;4966715;28;20533;-84
2020/12/22 01:51:31;;;;;;;7.50;5.78;;;;;;;11.58;68.63;98488.06;4959190;28;19965;-85
2020/12/22 01:54:00;;;;;;;8.35;6.72;;;;;;;11.66;68.69;98495.66;4982441;28;20023;-86
2020/12/22 01:56:27;;;;;;;7.63;6.53;;;;;;;12.09;67.11;98495.19;4953520;28;20070;-86
2020/12/22 01:58:54;;;;;;;6.20;5.43;;;;;;;11.82;67.97;98496.09;4950675;28;20066;-85
2020/12/22 02:01:22;;;;;;;7.93;6.07;;;;;;;12.20;66.37;98511.41;4947891;28;20437;-87
2020/12/22 02:03:51;;;;;;;6.40;5.65;;;;;;;11.86;67.58;98506.41;4954880;28;20097;-86
2020/12/22 02:06:23;;;;;;;7.40;5.75;;;;;;;12.46;65.72;98519.28;4966336;28;20039;-85
2020/12/22 02:08:52;;;;;;;6.20;5.28;;;;;;;12.42;65.43;98522.06;4970225;28;20134;-84
2020/12/22 02:11:28;;;;;;;10.32;5.72;;;;;;;12.64;64.86;98523.88;4967988;28;20062;-85
2020/12/22 02:13:58;;;;;;;6.97;5.97;;;;;;;12.17;66.58;98525.47;4967145;28;20065;-87
2020/12/22 02:16:44;;;;;;;6.85;6.07;;;;;;;11.99;66.68;98528.66;4967678;28;20129;-88
2020/12/22 02:19:23;;;;;;;10.63;7.57;;;;;;;11.87;67.48;98528.19;4956196;28;20089;-87
2020/12/22 02:21:50;;;;;;;8.18;7.20;;;;;;;12.40;65.41;98550.03;4934138;28;20043;-87
2020/12/22 02:24:17;;;;;;;8.98;7.10;;;;;;;12.34;65.57;98560.72;4947098;28;20098;-87
2020/12/22 02:26:44;;;;;;;8.93;7.90;;;;;;;12.39;65.42;98574.53;4933904;28;20133;-85
2020/12/22 02:29:12;;;;;;;8.75;7.70;;;;;;;12.23;65.57;98575.00;4951636;28;20090;-87
2020/12/22 02:31:39;;;;;;;10.30;8.90;;;;;;;12.09;66.16;98581.59;4970555;28;20047;-85
2020/12/22 02:34:10;;;;;;;13.48;9.15;;;;;;;12.30;65.55;98577.44;4952502;28;20121;-86
2020/12/22 02:36:37;;;;;;;11.38;8.70;;;;;;;12.58;64.38;98583.50;4971122;28;20149;-88
2020/12/22 02:39:04;;;;;;;11.65;9.07;;;;;;;12.06;65.78;98579.94;4969965;28;20546;-87
2020/12/22 02:41:32;;;;;;;10.75;8.68;;;;;;;11.78;67.12;98589.53;4970409;28;20061;-86
2020/12/22 02:43:58;;;;;;;11.90;8.43;;;;;;;11.65;67.47;98606.47;4946378;28;20502;-84
2020/12/22 02:46:34;;;;;;;10.00;7.75;;;;;;;11.88;66.61;98614.53;4950152;28;20054;-85
2020/12/22 02:49:01;;;;;;;12.27;9.05;;;;;;;11.53;67.15;98609.41;4970426;28;20081;-85
2020/12/22 02:51:31;;;;;;;11.55;8.93;;;;;;;11.97;65.38;98610.78;4970657;28;20046;-85
2020/12/22 02:53:58;;;;;;;12.68;9.20;;;;;;;10.98;68.24;98610.09;4976335;28;20047;-85
2020/12/22 02:56:24;;;;;;;9.98;8.43;;;;;;;11.20;67.67;98627.75;4979335;28;20045;-85
2020/12/22 02:58:51;;;;;;;12.07;8.88;;;;;;;10.64;68.93;98634.47;4967567;28;20516;-84
2020/12/22 03:01:19;;;;;;;12.57;10.15;;;;;;;10.68;69.04;98641.31;4971782;28;20183;-85
2020/12/22 03:03:47;;;;;;;12.35;10.15;;;;;;;10.96;68.62;98646.69;4959989;28;20587;-85
2020/12/22 03:06:14;;;;;;;12.55;9.65;;;;;;;10.87;67.91;98634.75;4981088;28;20467;-84
2020/12/22 03:08:40;;;;;;;16.42;10.35;;;;;;;10.45;69.71;98651.47;4982874;28;20928;-85
2020/12/22 03:11:08;;;;;;;11.13;9.05;;;;;;;10.93;68.11;98662.47;4978898;28;20051;-86
2020/12/22 03:13:36;;;;;;;13.18;9.93;;;;;;;11.14;67.37;98664.50;4964823;28;20050;-84
2020/12/22 03:16:04;;;;;;;12.90;10.18;;;;;;;11.20;67.15;98676.56;4965649;28;20477;-83
2020/12/22 03:18:30;;;;;;;10.25;8.73;;;;;;;10.77;69.07;98671.56;4986114;28;20220;-83
2020/12/22 03:20:56;;;;;;;14.20;10.10;;;;;;;11.09;67.71;98689.06;4963934;28;20056;-84
2020/12/22 03:23:23;;;;;;;13.60;10.30;;;;;;;11.05;67.11;98687.41;4985666;28;20058;-83
2020/12/22 03:25:50;;;;;;;16.20;11.10;;;;;;;11.34;66.20;98682.28;4967097;28;20050;-84
2020/12/22 03:28:17;;;;;;;13.02;10.65;;;;;;;11.24;65.69;98680.81;4964524;28;20569;-84
2020/12/22 03:30:43;;;;;;;14.60;10.95;;;;;;;11.15;65.73;98684.53;4966111;28;20561;-85
2020/12/22 03:33:09;;;;;;;15.48;11.52;;;;;;;10.70;67.92;98690.88;4950160;28;20573;-84
2020/12/22 03:35:36;;;;;;;15.68;12.25;;;;;;;11.03;66.41;98695.28;4984433;28;20449;-83
2020/12/22 03:38:03;;;;;;;16.10;12.60;;;;;;;10.99;67.26;98703.25;4984900;28;20045;-84
2020/12/22 03:40:29;;;;;;;16.35;13.27;;;;;;;10.80;67.39;98705.44;4960606;28;20063;-85
2020/12/22 03:42:56;;;;;;;16.27;12.80;;;;;;;10.79;67.34;98707.19;4978435;28;20055;-85
2020/12/22 03:45:23;;;;;;;16.67;12.40;;;;;;;10.41;68.66;98721.16;4961990;28;20046;-83
2020/12/22 03:47:50;;;;;;;18.13;12.93;;;;;;;10.18;68.40;98732.97;4963738;28;20049;-84
2020/12/22 03:50:23;;;;;;;20.42;13.98;;;;;;;10.29;68.79;98731.00;4982103;28;20045;-82
2020/12/22 03:52:49;;;;;;;18.30;13.07;;;;;;;10.00;69.12;98745.50;4969485;28;20050;-84
2020/12/22 03:55:16;;;;;;;18.92;13.32;;;;;;;9.74;70.37;98750.34;4968683;28;20059;-84
2020/12/22 03:57:43;;;;;;;19.20;13.52;;;;;;;9.78;69.66;98751.19;4968807;28;20454;-84
2020/12/22 04:00:12;;;;;;;21.30;14.13;;;;;;;10.19;68.91;98742.53;4966827;28;20087;-83
2020/12/22 04:02:39;;;;;;;19.27;13.70;;;;;;;10.01;68.98;98754.19;4965488;28;20043;-83
2020/12/22 04:05:06;;;;;;;16.65;12.32;;;;;;;9.98;69.24;98772.50;4964773;28;20051;-84
2020/12/22 04:07:33;;;;;;;19.15;12.82;;;;;;;10.33;67.59;98785.75;4948260;28;20117;-85
2020/12/22 04:10:01;;;;;;;19.27;14.00;;;;;;;10.36;67.54;98788.28;4969669;28;20057;-84
2020/12/22 04:12:28;;;;;;;18.95;13.18;;;;;;;10.17;68.19;98786.94;4981242;28;20051;-84
2020/12/22 04:14:54;;;;;;;20.20;14.13;;;;;;;9.96;68.41;98801.25;4963595;28;20510;-85
2020/12/22 04:17:20;;;;;;;19.85;13.57;;;;;;;9.72;69.05;98806.06;4948610;28;20498;-84
2020/12/22 04:19:47;;;;;;;19.63;13.32;;;;;;;10.04;68.39;98819.34;4969699;28;20102;-84
2020/12/22 04:22:13;;;;;;;17.73;12.75;;;;;;;10.27;67.24;98830.22;4965132;28;20050;-83
2020/12/22 04:24:40;;;;;;;16.35;11.75;;;;;;;9.71;68.13;98825.19;4982911;28;20086;-84
2020/12/22 04:27:06;;;;;;;19.20;12.70;;;;;;;10.09;67.44;98838.41;4966446;28;20043;-84
2020/12/22 04:29:33;;;;;;;21.05;12.07;;;;;;;9.74;67.99;98843.38;4964715;28;20219;-83
2020/12/22 04:31:59;;;;;;;18.88;13.15;;;;;;;9.71;67.95;98849.53;4961019;28;20088;-83
2020/12/22 04:34:26;;;;;;;17.60;13.10;;;;;;;10.07;67.01;98848.03;4961826;28;20043;-83
2020/12/22 04:36:53;;;;;;;19.48;13.70;;;;;;;9.82;67.46;98849.34;4962547;28;20035;-83
2020/12/22 04:39:20;;;;;;;19.73;13.43;;;;;;;9.58;67.48;98842.81;4965905;28;20053;-82
2020/12/22 04:41:48;;;;;;;17.30;11.55;;;;;;;9.68;67.06;98833.09;4965924;28;20089;-87
2020/12/22 04:44:17;;;;;;;18.48;12.63;;;;;;;9.47;67.86;98847.34;4942820;28;20070;-83
2020/12/22 04:46:51;;;;;;;14.73;11.57;;;;;;;9.69;66.54;98835.66;4979853;28;20061;-82
2020/12/22 04:49:22;;;;;;;19.67;12.45;;;;;;;9.41;66.93;98853.50;4980393;28;20062;-84
2020/12/22 04:51:50;;;;;;;21.90;12.98;;;;;;;9.24;67.59;98868.56;4968932;28;20369;-84
2020/12/22 04:54:33;;;;;;;18.95;13.45;;;;;;;9.52;66.27;98864.63;4959039;28;20077;-85
2020/12/22 04:57:03;;;;;;;21.05;14.57;;;;;;;9.51;66.51;98870.72;4960896;28;20039;-85
2020/12/22 04:59:30;;;;;;;21.40;14.63;;;;;;;9.27;66.60;98881.53;4965677;28;20549;-86
2020/12/22 05:01:58;;;;;;;24.95;15.02;;;;;;;8.89;67.64;98883.84;4950954;28;20121;-84
2020/12/22 05:04:37;;;;;;;22.73;15.43;;;;;;;9.53;66.01;98874.19;4961781;28;20089;-84
2020/12/22 05:07:06;;;;;;;20.23;14.27;;;;;;;9.42;66.12;98880.44;4966877;28;20039;-84
2020/12/22 05:09:34;;;;;;;24.40;16.00;;;;;;;8.73;68.15;98877.97;4962222;28;20114;-83
2020/12/22 05:12:00;;;;;;;22.42;15.02;;;;;;;8.64;69.23;98881.56;4947817;28;20055;-85
2020/12/22 05:14:28;;;;;;;23.92;16.48;;;;;;;8.76;68.43;98885.75;4961356;28;20149;-84
2020/12/22 05:16:56;;;;;;;24.00;15.63;;;;;;;8.73;67.71;98886.63;4960632;28;20043;-84
2020/12/22 05:19:22;;;;;;;22.38;15.43;;;;;;;8.66;68.30;98884.16;4961797;28;20042;-85
2020/12/22 05:21:50;;;;;;;21.83;14.27;;;;;;;8.67;67.91;98888.47;4963238;28;20126;-84
2020/12/22 05:24:17;;;;;;;20.63;13.85;;;;;;;8.44;68.76;98882.69;4964808;28;20046;-84
2020/12/22 05:26:45;;;;;;;18.85;13.68;;;;;;;8.03;69.43;98893.50;4948498;28;20379;-83
2020/12/22 05:29:16;;;;;;;16.25;11.70;;;;;;;8.10;69.16;98903.00;4962858;28;20051;-85
2020/12/22 05:31:52;;;;;;;18.50;12.23;;;;;;;8.61;66.97;98906.78;4947424;28;20051;-85
2020/12/22 05:34:31;;;;;;;19.30;11.73;;;;;;;8.36;67.46;98915.75;4944827;28;20078;-84
2020/12/22 05:36:59;;;;;;;16.48;11.98;;;;;;;7.97;68.57;98928.25;4963505;28;20058;-83
2020/12/22 05:39:26;;;;;;;16.15;11.23;;;;;;;7.82;68.58;98926.63;4956769;28;20050;-84
2020/12/22 05:41:52;;;;;;;15.98;10.70;;;;;;;7.93;67.70;98931.75;4982020;28;20131;-84
2020/12/22 05:44:24;;;;;;;15.48;9.65;;;;;;;8.17;66.51;98935.84;4965984;28;20081;-84
2020/12/22 05:46:51;;;;;;;14.10;9.68;;;;;;;8.00;67.05;98946.44;4965309;28;20057;-81
2020/12/22 05:49:18;;;;;;;13.07;8.23;;;;;;;7.89;66.51;98953.47;4963374;28;20105;-84
2020/12/22 05:51:44;;;;;;;15.07;8.35;;;;;;;8.03;66.10;98951.59;4963607;28;20390;-82
2020/12/22 05:54:16;;;;;;;11.52;7.75;;;;;;;7.81;66.41;98957.88;4964175;28;20137;-85
2020/12/22 05:56:44;;;;;;;13.88;7.30;;;;;;;7.75;66.30;98963.97;4962201;28;20064;-83
2020/12/22 05:59:20;;;;;;;14.70;6.85;;;;;;;7.35;67.27;98963.38;4980254;28;20117;-85
2020/12/22 06:01:47;;;;;;;11.85;5.53;;;;;;;7.47;66.89;98975.44;4959648;28;20074;-84
2020/12/22 06:04:17;;;;;;;9.35;4.82;;;;;;;7.15;66.39;98972.16;4958519;28;20051;-82
2020/12/22 06:06:45;;;;;;;6.90;4.10;;;;;;;7.23;66.57;98979.06;4963433;28;20455;-81
2020/12/22 06:09:14;;;;;;;7.60;3.70;;;;;;;7.40;66.12;98985.00;4964659;28;20043;-84
2020/12/22 06:11:40;;;;;;;11.77;4.80;;;;;;;7.16;65.89;98989.47;4963711;28;20065;-84
2020/12/22 06:14:07;;;;;;;8.98;4.78;;;;;;;7.33;65.21;98988.53;4972108;28;20486;-84
2020/12/22 06:16:34;;;;;;;11.05;3.70;;;;;;;7.14;65.21;99004.22;4966085;28;20054;-84
2020/12/22 06:19:01;;;;;;;7.90;3.58;;;;;;;7.57;64.48;99010.03;4950251;28;20078;-84
2020/12/22 06:21:28;;;;;;;9.02;3.17;;;;;;;7.18;64.72;99008.53;4950293;28;20058;-85
2020/12/22 06:23:55;;;;;;;9.13;2.30;;;;;;;6.94;64.73;99017.28;4965017;28;20473;-85
2020/12/22 06:26:23;;;;;;;10.70;2.35;;;;;;;7.07;64.22;99033.66;4971370;28;20785;-86
2020/12/22 06:28:49;;;;;;;8.75;2.50;;;;;;;6.98;63.68;99039.78;4970923;28;20038;-86
2020/12/22 06:31:24;;;;;;;7.68;2.10;;;;;;;7.28;63.57;99042.25;4969191;28;20043;-87
2020/12/22 06:33:53;;;;;;;6.60;1.83;;;;;;;7.24;63.40;99045.72;4970441;28;20058;-85
2020/12/22 06:36:20;;;;;;;8.27;2.08;;;;;;;7.03;63.91;99058.78;4950420;28;20039;-84
2020/12/22 06:38:52;;;;;;;5.93;2.28;;;;;;;6.98;64.65;99053.63;4975759;28;20042;-84
2020/12/22 06:41:34;;;;;;;6.63;2.35;;;;;;;7.14;64.12;99063.97;4961694;28;20460;-85
2020/12/22 06:44:26;;;;;;;6.88;2.72;;;;;;;7.13;63.82;99077.81;4960063;28;20055;-87
2020/12/22 06:46:56;;;;;;;4.15;2.22;;;;;;;7.19;63.63;99089.06;4983064;28;20792;-85
2020/12/22 06:49:53;;;;;;;8.38;3.33;;;;;;;7.58;61.93;99093.19;4985093;28;20446;-85
2020/12/22 06:52:57;;;;;;;5.28;2.95;;;;;;;7.45;61.54;99100.19;4971698;28;20066;-85
2020/12/22 06:55:52;;;;;;;7.50;2.35;;;;;;;7.39;61.51;99096.75;4946605;28;20047;-82
2020/12/22 06:58:35;;;;;;;6.95;2.47;;;;;;;7.56;61.29;99107.94;4938827;28;20481;-85
2020/12/22 07:01:28;;;;;;;10.20;3.10;;;;;;;7.13;62.31;99111.56;4952573;29;20453;-86
2020/12/22 07:04:09;;;;;;;7.53;2.80;;;;;;;6.92;62.54;99115.94;4948435;28;20055;-84
2020/12/22 07:06:48;;;;;;;8.40;2.42;;;;;;;7.30;61.85;99121.03;4929215;28;20297;-83
2020/12/22 07:09:21;;;;;;;4.82;2.53;;;;;;;7.28;61.96;99115.00;4932948;29;20047;-85
2020/12/22 07:11:49;;;;;;;6.78;2.40;;;;;;;7.10;62.69;99122.81;4951441;29;20181;-85
2020/12/22 07:14:18;;;;;;;10.07;3.45;;;;;;;6.80;64.55;99126.38;4932648;29;20054;-85
2020/12/22 07:16:52;;;;;;;15.82;4.22;;;;;;;6.89;64.68;99130.69;4932686;28;20119;-84
2020/12/22 07:19:29;;;;;;;9.63;3.83;;;;;;;6.90;65.11;99138.47;4949370;28;20047;-86
2020/12/22 07:21:57;;;;;;;10.93;3.85;;;;;;;6.95;65.11;99130.69;4949758;28;20047;-86
2020/12/22 07:24:25;;;;;;;6.75;3.90;;;;;;;6.87;65.18;99129.81;4949483;28;20074;-86
2020/12/22 07:26:53;;;;;;;12.23;4.25;;;;;;;6.83;65.96;99136.75;4952699;28;20051;-85
2020/12/22 07:29:20;;;;;;;9.20;4.45;;;;;;;6.68;67.01;99144.53;4958509;28;20142;-85
2020/12/22 07:31:47;;;;;;;13.05;5.35;;;;;;;7.18;65.25;99154.84;4953244;28;20047;-82
2020/12/22 07:34:19;;;;;;;8.13;4.32;;;;;;;6.81;66.00;99153.19;4968548;28;20090;-83
2020/12/22 07:37:03;;;;;;;9.00;4.70;;;;;;;6.70;66.88;99147.16;4969226;28;20490;-83
2020/12/22 07:39:32;;;;;;;10.88;4.20;;;;;;;7.01;65.69;99151.41;4970448;28;20051;-83
2020/12/22 07:42:16;;;;;;;11.50;4.47;;;;;;;6.82;66.27;99162.69;4953913;28;20054;-85
2020/12/22 07:44:51;;;;;;;11.57;3.88;;;;;;;6.65;67.28;99167.03;4970500;28;20126;-86
2020/12/22 07:47:18;;;;;;;10.30;3.85;;;;;;;6.99;65.94;99164.44;4971353;28;20042;-82
2020/12/22 07:49:44;;;;;;;11.85;4.10;;;;;;;6.42;67.52;99161.84;4973307;28;20050;-84
2020/12/22 07:52:18;;;;;;;8.13;3.88;;;;;;;6.98;65.80;99167.00;4983357;28;20058;-84
2020/12/22 07:54:57;;;;;;;10.15;3.80;;;;;;;6.82;66.01;99168.75;4984011;28;20039;-84
2020/12/22 07:57:26;;;;;;;9.90;3.58;;;;;;;6.83;66.18;99167.03;4956191;28;20074;-78
2020/12/22 08:00:01;;;;;;;9.88;3.88;;;;;;;6.63;66.66;99177.41;4958893;28;20051;-80
2020/12/22 08:02:27;;;;;;;10.85;2.67;;;;;;;6.54;66.62;99183.47;4975549;28;20062;-79
2020/12/22 08:04:54;;;;;;;9.43;2.70;;;;;;;6.23;67.09;99181.72;4963855;28;20497;-81
2020/12/22 08:07:20;;;;;;;9.93;2.70;;;;;;;6.69;66.07;99189.53;4960456;28;20042;-80
2020/12/22 08:09:47;;;;;;;13.95;2.92;;;;;;;6.57;66.33;99191.25;4965379;28;20621;-78
2020/12/22 08:12:16;;;;;;;13.40;2.30;;;;;;;6.77;65.83;99182.59;4960336;28;20521;-79
2020/12/22 08:14:46;;;;;;;10.10;2.40;;;;;;;6.56;66.28;99181.75;4964275;28;20133;-78
2020/12/22 08:17:22;;;;;;;7.22;2.10;;;;;;;6.74;66.04;99185.22;4960234;28;20047;-82
2020/12/22 08:19:49;;;;;;;14.20;2.17;;;;;;;6.78;65.37;99197.31;4967672;28;20046;-82
2020/12/22 08:22:18;;;;;;;9.07;1.88;;;;;;;7.09;64.93;99203.38;4949305;28;20050;-80
2020/12/22 08:24:45;;;;;;;10.98;2.03;;;;;;;7.18;64.45;99218.94;4964101;28;20074;-78
2020/12/22 08:27:15;;;;;;;16.20;2.22;;;;;;;6.87;65.47;99220.69;4947853;28;20109;-80
2020/12/22 08:29:42;;;;;;;4.45;1.60;;;;;;;7.05;64.71;99231.03;4952266;28;20153;-79
2020/12/22 08:32:09;;;;;;;10.60;1.70;;;;;;;7.00;65.07;99233.66;4964568;28;20379;-81
2020/12/22 08:34:35;;;;;;;3.42;1.30;;;;;;;6.85;65.35;99241.47;4962646;28;20042;-80
2020/12/22 08:37:09;;;;;;;13.32;1.73;;;;;;;7.16;65.00;99244.91;4977881;28;20031;-79
2020/12/22 08:39:41;;;;;;;7.00;1.88;;;;;;;7.09;65.18;99239.72;4972960;28;20452;-80
2020/12/22 08:42:11;;;;;;;9.73;1.83;;;;;;;7.33;64.29;99247.50;4969088;28;20484;-79
2020/12/22 08:44:50;;;;;;;13.77;2.30;;;;;;;6.96;65.54;99251.81;4960736;28;20117;-80
2020/12/22 08:47:20;;;;;;;7.70;1.85;;;;;;;6.99;65.35;99247.53;4961503;28;20560;-80
2020/12/22 08:49:47;;;;;;;12.10;1.63;;;;;;;7.34;65.03;99257.00;4952403;28;20043;-81
2020/12/22 08:52:16;;;;;;;12.40;1.95;;;;;;;7.30;64.45;99261.34;4968023;28;20162;-84
2020/12/22 08:54:48;;;;;;;17.88;1.83;;;;;;;7.32;64.62;99261.34;4968265;28;20034;-85
2020/12/22 08:57:18;;;;;;;14.25;2.17;;;;;;;7.22;64.91;99267.41;4962991;28;20383;-83
2020/12/22 08:59:48;;;;;;;15.30;1.85;;;;;;;6.94;66.22;99270.03;4954424;28;20422;-82
2020/12/22 09:02:32;;;;;;;9.95;1.60;;;;;;;7.38;64.92;99277.81;4959032;28;20696;-83
2020/12/22 09:05:09;;;;;;;12.98;2.25;;;;;;;7.69;63.87;99280.31;4962401;28;20499;-83
2020/12/22 09:07:36;;;;;;;12.38;2.33;;;;;;;8.01;63.10;99290.66;4950793;28;20383;-83
2020/12/22 09:10:07;;;;;;;11.82;1.52;;;;;;;8.02;62.94;99282.81;4953407;28;20042;-84
2020/12/22 09:12:37;;;;;;;15.98;2.00;;;;;;;8.63;61.22;99286.00;4968979;28;20101;-82
2020/12/22 09:15:08;;;;;;;9.75;1.60;;;;;;;9.31;59.04;99282.00;4971469;28;20418;-81
2020/12/22 09:17:38;;;;;;;9.55;1.52;;;;;;;11.23;56.15;99291.75;4967580;28;20093;-83
2020/12/22 09:20:06;;;;;;;12.27;1.92;;;;;;;13.19;50.26;99298.28;4964671;28;20055;-83
2020/12/22 09:22:34;;;;;;;8.13;1.23;;;;;;;14.74;44.23;99281.75;4968807;28;20074;-84
2020/12/22 09:25:07;;;;;;;8.75;1.63;;;;;;;16.42;41.92;99292.69;4948831;28;20055;-85
2020/12/22 09:27:46;;;;;;;13.05;1.63;;;;;;;17.28;37.59;99289.31;4968264;28;20074;-84
2020/12/22 09:30:26;;;;;;;5.80;1.75;;;;;;;18.14;36.03;99295.31;4968691;28;20051;-86
2020/12/22 09:32:59;;;;;;;4.00;1.45;;;;;;;19.09;33.57;99300.59;4971703;28;20441;-88
2020/12/22 09:35:26;;;;;;;7.22;1.50;;;;;;;20.05;33.14;99300.25;4964383;28;20126;-84
2020/12/22 09:37:52;;;;;;;5.68;1.67;;;;;;;20.11;31.48;99295.47;4966695;28;20038;-86
2020/12/22 09:40:19;;;;;;;8.23;1.98;;;;;;;20.62;31.34;99305.16;4966010;28;20049;-88
2020/12/22 09:42:46;;;;;;;11.35;2.40;;;;;;;21.71;30.08;99312.19;4969607;28;20062;-82
2020/12/22 09:45:13;;;;;;;8.10;2.50;;;;;;;22.85;28.48;99310.53;4971625;28;20046;-84
2020/12/22 09:47:40;;;;;;;7.57;1.88;;;;;;;23.73;27.61;99320.78;4960432;28;20050;-84
2020/12/22 09:50:09;;;;;;;6.30;1.88;;;;;;;24.62;25.79;99310.16;4968906;28;20046;-90
2020/12/22 09:52:35;;;;;;;7.50;1.70;;;;;;;24.92;24.69;99318.69;4972646;28;20047;-85
2020/12/22 09:55:02;;;;;;;7.63;2.00;;;;;;;24.24;25.35;99324.38;4972223;28;20074;-87
2020/12/22 09:57:28;;;;;;;10.95;2.65;;;;;;;23.69;25.98;99329.09;4972078;28;20035;-83
2020/12/22 09:59:55;;;;;;;7.32;1.92;;;;;;;22.54;26.02;99316.06;4951714;28;20042;-81
2020/12/22 10:02:21;;;;;;;9.95;1.50;;;;;;;19.95;29.48;99313.97;4968712;28;20055;-81
2020/12/22 10:04:47;;;;;;;5.50;1.55;;;;;;;21.95;29.34;99322.34;4961139;28;20077;-81
2020/12/22 10:07:16;;;;;;;9.68;1.70;;;;;;;22.22;27.83;99330.47;4965752;28;20038;-80
2020/12/22 10:09:45;;;;;;;8.77;1.80;;;;;;;22.84;27.80;99330.13;4964235;28;20540;-80
2020/12/22 10:12:12;;;;;;;9.05;1.50;;;;;;;21.59;27.51;99333.31;4966730;28;20117;-83
2020/12/22 10:14:38;;;;;;;7.38;2.20;;;;;;;22.16;30.03;99345.84;4964752;28;20074;-81
2020/12/22 10:17:06;;;;;;;11.45;1.50;;;;;;;21.51;28.99;99346.19;4965799;28;20098;-84
2020/12/22 10:19:33;;;;;;;6.30;1.48;;;;;;;18.88;33.76;99336.06;4950445;28;20478;-82
2020/12/22 10:22:03;;;;;;;7.60;1.30;;;;;;;20.43;31.66;99336.25;4964271;28;20073;-85
2020/12/22 10:24:36;;;;;;;10.85;2.05;;;;;;;19.74;31.03;99346.03;4967420;28;20067;-81
2020/12/22 10:27:04;;;;;;;4.55;1.45;;;;;;;20.44;31.74;99354.72;4960985;28;20121;-85
2020/12/22 10:29:31;;;;;;;8.65;2.08;;;;;;;20.46;32.23;99357.31;4957276;28;20072;-83
2020/12/22 10:31:57;;;;;;;8.20;1.85;;;;;;;20.06;32.69;99358.50;4965697;28;20051;-82
2020/12/22 10:34:24;;;;;;;9.80;1.98;;;;;;;20.20;30.92;99373.69;4972646;28;20142;-82
2020/12/22 10:36:54;;;;;;;10.20;1.95;;;;;;;18.97;31.94;99375.31;4967565;28;20042;-84
2020/12/22 10:39:21;;;;;;;11.32;1.67;;;;;;;17.51;34.31;99366.72;4983288;28;20485;-83
2020/12/22 10:41:47;;;;;;;12.02;2.17;;;;;;;16.64;37.54;99366.66;4964043;28;20055;-89
2020/12/22 10:44:14;;;;;;;14.60;1.58;;;;;;;17.09;38.32;99367.53;4967324;28;20055;-80
2020/12/22 10:46:45;;;;;;;8.98;1.75;;;;;;;17.35;40.37;99371.78;4966578;28;20071;-80
2020/12/22 10:49:14;;;;;;;7.80;1.35;;;;;;;17.60;38.56;99374.34;4965079;28;20047;-81
2020/12/22 10:51:41;;;;;;;8.60;2.30;;;;;;;18.87;34.62;99368.75;4980816;28;20062;-81
2020/12/22 10:54:08;;;;;;;10.05;1.65;;;;;;;19.79;33.04;99378.47;4948849;28;20070;-81
2020/12/22 10:56:35;;;;;;;8.68;2.03;;;;;;;19.90;33.81;99379.63;4965125;28;20123;-81
2020/12/22 10:59:03;;;;;;;5.60;1.80;;;;;;;20.36;33.53;99388.78;4968208;28;20042;-79
2020/12/22 11:01:29;;;;;;;5.70;1.67;;;;;;;19.71;33.02;99394.72;4971131;28;20133;-80
2020/12/22 11:03:57;;;;;;;8.93;1.67;;;;;;;19.45;33.20;99400.44;4982526;28;20190;-81
2020/12/22 11:06:42;;;;;;;6.95;1.52;;;;;;;19.33;33.18;99388.59;4972901;28;20402;-78
2020/12/22 11:09:10;;;;;;;10.32;1.63;;;;;;;19.01;34.73;99384.84;4958023;28;20078;-85
2020/12/22 11:11:43;;;;;;;7.22;1.83;;;;;;;18.67;35.05;99385.53;4977688;28;20130;-88
2020/12/22 11:14:10;;;;;;;14.48;1.98;;;;;;;17.56;36.90;99392.03;4970632;28;20043;-85
2020/12/22 11:16:36;;;;;;;10.35;1.48;;;;;;;17.99;36.95;99396.44;4973859;28;20145;-84
2020/12/22 11:19:03;;;;;;;6.13;1.50;;;;;;;18.50;36.25;99390.69;4965423;28;20046;-87
2020/12/22 11:21:30;;;;;;;6.10;1.60;;;;;;;17.77;37.23;99390.34;4970806;28;20122;-85
2020/12/22 11:23:57;;;;;;;12.73;1.40;;;;;;;16.20;37.74;99384.91;4966893;28;20047;-86
2020/12/22 11:26:25;;;;;;;7.60;1.25;;;;;;;15.84;41.33;99404.56;4968414;28;20060;-88
2020/12/22 11:28:52;;;;;;;8.48;1.65;;;;;;;15.90;40.73;99399.13;4954436;28;20055;-84
2020/12/22 11:31:21;;;;;;;8.65;2.38;;;;;;;15.62;40.56;99397.41;4964789;28;20521;-85
2020/12/22 11:33:47;;;;;;;8.35;2.30;;;;;;;15.03;42.66;99387.84;4934599;28;20672;-86
2020/12/22 11:36:18;;;;;;;9.60;1.98;;;;;;;14.73;43.82;99400.97;4963527;28;20035;-88
2020/12/22 11:38:51;;;;;;;6.10;1.70;;;;;;;14.61;43.03;99390.84;4967065;28;20433;-84
2020/12/22 11:41:29;;;;;;;11.00;2.53;;;;;;;14.23;45.02;99388.38;4950184;28;20566;-88
2020/12/22 11:44:02;;;;;;;13.23;2.60;;;;;;;14.49;45.00;99388.53;4966541;28;20081;-85